Česky Dansk Deutsch English Español Suomi Français Magyar Italiano Nederlands norsk Polski Português svenska Türkçe

 

Het Weer

Landivisiau (Frankrijk)

21:00, 20 augustus 2016 (GMT)

NWNNE
WE
SWSSE
Home            
Landivisiau Brest Morlaix / Ploujean Lanveoc Poulmic Lannion / Servel Quimper Saint-Brieuc Lann Bihoue Guernsey Airport Dinard Jersey Airport Rennes Culdrose Alderney / Channel Island St-Nazaire Plymouth Plymouth / Roborough Scilly, Saint Mary'S Saint Mawgan Cherbourg / Maupertus Nantes Exeter Airport Portland / Rnas

Om een weerknop op uw website of weblog te plaatsen, copieer onderstaande code en plak die in uw pagina. In het eerste vakje staat HTML-code, in het tweede vakje UBB-code.


Add to Google

Details

Wind speed:4 bf, 12 kn, 6.2 m/s, 13.8 miles/h, 22.2 km/h
Wind direction:W, 260°
Visibility:Greater than 10000 m, 10 km, 32800 ft, 6.2 miles
Clouds:CAVOC
Temperature:15°C, 59°F
Dew-point:11°C, 52°F
Atmospheric pressure:1018 hPa, 763.6 mmHg, 30.06 inHg, 1.005 atm
Relative humidity:77.0 %
METAR:LFRJ 202100Z AUTO 26012KT CAVOK 15/11 Q1018

Snelkoppelingen

Actuele weersinformatie van de hele wereld. Voeg locaties toe met het plus (+) symbool. Deze snelkoppelingen kunnen worden toegevoegd aan Google.

Lid van de Technetium groep

website free tracking
StatCounter NetStat W3C Validator

25-11-2020 09:33:51
astro.technetium.be money.technetium.be phote.technetium.be tafeltennistafel.technetium.be www.ligfiets.net